25°F Temp
'.PHP_EOL;
23°F Dewpoint
93% Humidity
Temperature
13 MPH
21 KM/H
11 KTS
60°
East North
East

Wind
Light Snow
Pressure 1012.22 (hPa)- 29.89 (in)
Visibility 1.3 (mi) - 2 (km)

Current Conditions
KRYV
Location Watertown Municipal 18(mi)
Metar:
KRYV 171555Z AUTO 06011G17KT 1 1/4SM -SN SCT010 OVC013 M04/M05 A2989 RMK AO2 T10381046

Warning: gmmktime() expects parameter 1 to be integer, string given in /home/z6ibztnlaud4/public_html/metar_popup.php on line 288
Wed 31st December 18:00 pm

Airport
  Metar Aviation API Data Provided by https://www.checkwx.com/